sensor_id;sensor_type;location;lat;lon;timestamp;P1;durP1;ratioP1;P2;durP2;ratioP2
3447;SDS011;1738;49.500;17.736;2023-08-01T00:01:41;6.83;;;3.70;;
3447;SDS011;1738;49.500;17.736;2023-08-01T00:04:06;5.83;;;2.80;;
3447;SDS011;1738;49.500;17.736;2023-08-01T00:06:32;9.80;;;3.03;;
3447;SDS011;1738;49.500;17.736;2023-08-01T00:08:58;7.63;;;2.47;;
3447;SDS011;1738;49.500;17.736;2023-08-01T00:11:24;6.37;;;3.60;;
3447;SDS011;1738;49.500;17.736;2023-08-01T00:13:50;8.30;;;3.63;;
3447;SDS011;1738;49.500;17.736;2023-08-01T00:16:16;7.70;;;3.40;;
3447;SDS011;1738;49.500;17.736;2023-08-01T00:18:41;13.47;;;3.30;;
3447;SDS011;1738;49.500;17.736;2023-08-01T00:21:07;4.70;;;3.43;;
3447;SDS011;1738;49.500;17.736;2023-08-01T00:23:35;7.67;;;2.97;;
3447;SDS011;1738;49.500;17.736;2023-08-01T00:26:01;5.73;;;3.00;;
3447;SDS011;1738;49.500;17.736;2023-08-01T00:28:27;8.60;;;3.15;;
3447;SDS011;1738;49.500;17.736;2023-08-01T00:33:24;4.43;;;2.67;;
3447;SDS011;1738;49.500;17.736;2023-08-01T00:35:53;4.03;;;2.87;;
3447;SDS011;1738;49.500;17.736;2023-08-01T00:38:16;6.70;;;3.10;;
3447;SDS011;1738;49.500;17.736;2023-08-01T00:40:42;5.60;;;2.73;;
3447;SDS011;1738;49.500;17.736;2023-08-01T00:43:07;4.07;;;2.60;;
3447;SDS011;1738;49.500;17.736;2023-08-01T00:45:33;10.23;;;3.53;;
3447;SDS011;1738;49.500;17.736;2023-08-01T00:47:59;6.87;;;3.10;;
3447;SDS011;1738;49.500;17.736;2023-08-01T00:50:25;5.63;;;2.50;;
3447;SDS011;1738;49.500;17.736;2023-08-01T00:52:51;8.43;;;3.60;;
3447;SDS011;1738;49.500;17.736;2023-08-01T00:55:17;5.20;;;2.87;;
3447;SDS011;1738;49.500;17.736;2023-08-01T00:57:43;7.27;;;2.60;;
3447;SDS011;1738;49.500;17.736;2023-08-01T01:00:09;4.60;;;2.87;;
3447;SDS011;1738;49.500;17.736;2023-08-01T01:02:35;5.60;;;2.50;;
3447;SDS011;1738;49.500;17.736;2023-08-01T01:05:01;5.70;;;2.40;;
3447;SDS011;1738;49.500;17.736;2023-08-01T01:07:27;12.50;;;2.77;;
3447;SDS011;1738;49.500;17.736;2023-08-01T01:09:52;9.40;;;3.80;;
3447;SDS011;1738;49.500;17.736;2023-08-01T01:12:18;3.93;;;2.50;;
3447;SDS011;1738;49.500;17.736;2023-08-01T01:14:44;4.80;;;3.03;;
3447;SDS011;1738;49.500;17.736;2023-08-01T01:17:10;3.90;;;2.63;;
3447;SDS011;1738;49.500;17.736;2023-08-01T01:19:36;9.93;;;2.70;;
3447;SDS011;1738;49.500;17.736;2023-08-01T01:22:05;7.03;;;3.03;;
3447;SDS011;1738;49.500;17.736;2023-08-01T01:24:30;3.70;;;2.40;;
3447;SDS011;1738;49.500;17.736;2023-08-01T01:26:56;6.90;;;3.22;;
3447;SDS011;1738;49.500;17.736;2023-08-01T01:29:22;6.10;;;2.77;;
3447;SDS011;1738;49.500;17.736;2023-08-01T01:31:48;7.93;;;2.60;;
3447;SDS011;1738;49.500;17.736;2023-08-01T01:34:14;5.07;;;2.80;;
3447;SDS011;1738;49.500;17.736;2023-08-01T01:36:40;13.60;;;3.43;;
3447;SDS011;1738;49.500;17.736;2023-08-01T01:39:06;4.03;;;2.67;;
3447;SDS011;1738;49.500;17.736;2023-08-01T01:41:32;8.40;;;3.20;;
3447;SDS011;1738;49.500;17.736;2023-08-01T01:43:58;6.40;;;2.83;;
3447;SDS011;1738;49.500;17.736;2023-08-01T01:46:23;5.90;;;2.60;;
3447;SDS011;1738;49.500;17.736;2023-08-01T01:48:49;4.27;;;2.27;;
3447;SDS011;1738;49.500;17.736;2023-08-01T01:51:15;4.93;;;2.83;;
3447;SDS011;1738;49.500;17.736;2023-08-01T01:53:41;6.53;;;3.27;;
3447;SDS011;1738;49.500;17.736;2023-08-01T01:56:07;6.40;;;2.57;;
3447;SDS011;1738;49.500;17.736;2023-08-01T01:58:33;4.80;;;2.80;;
3447;SDS011;1738;49.500;17.736;2023-08-01T02:00:58;5.23;;;3.47;;
3447;SDS011;1738;49.500;17.736;2023-08-01T02:03:24;3.33;;;2.27;;
3447;SDS011;1738;49.500;17.736;2023-08-01T02:05:50;4.00;;;2.70;;
3447;SDS011;1738;49.500;17.736;2023-08-01T02:08:16;10.83;;;2.50;;
3447;SDS011;1738;49.500;17.736;2023-08-01T02:10:42;15.47;;;2.70;;
3447;SDS011;1738;49.500;17.736;2023-08-01T02:13:08;6.33;;;2.50;;
3447;SDS011;1738;49.500;17.736;2023-08-01T02:15:34;6.17;;;3.00;;
3447;SDS011;1738;49.500;17.736;2023-08-01T02:17:59;6.00;;;2.90;;
3447;SDS011;1738;49.500;17.736;2023-08-01T02:20:25;8.20;;;2.77;;
3447;SDS011;1738;49.500;17.736;2023-08-01T02:22:51;5.00;;;2.78;;
3447;SDS011;1738;49.500;17.736;2023-08-01T02:25:17;6.47;;;3.07;;
3447;SDS011;1738;49.500;17.736;2023-08-01T02:27:43;7.03;;;2.77;;
3447;SDS011;1738;49.500;17.736;2023-08-01T02:30:09;4.40;;;2.27;;
3447;SDS011;1738;49.500;17.736;2023-08-01T02:32:35;3.40;;;2.43;;
3447;SDS011;1738;49.500;17.736;2023-08-01T02:35:01;5.73;;;2.80;;
3447;SDS011;1738;49.500;17.736;2023-08-01T02:37:27;4.90;;;2.70;;
3447;SDS011;1738;49.500;17.736;2023-08-01T02:39:53;3.70;;;2.83;;
3447;SDS011;1738;49.500;17.736;2023-08-01T02:42:19;6.67;;;2.57;;
3447;SDS011;1738;49.500;17.736;2023-08-01T02:44:44;5.13;;;2.60;;
3447;SDS011;1738;49.500;17.736;2023-08-01T02:47:10;5.73;;;2.93;;
3447;SDS011;1738;49.500;17.736;2023-08-01T02:49:36;5.73;;;2.63;;
3447;SDS011;1738;49.500;17.736;2023-08-01T02:52:02;4.63;;;3.47;;
3447;SDS011;1738;49.500;17.736;2023-08-01T02:54:28;7.37;;;3.07;;
3447;SDS011;1738;49.500;17.736;2023-08-01T02:56:54;6.07;;;3.10;;
3447;SDS011;1738;49.500;17.736;2023-08-01T02:59:20;6.87;;;3.47;;
3447;SDS011;1738;49.500;17.736;2023-08-01T03:01:46;4.90;;;3.67;;
3447;SDS011;1738;49.500;17.736;2023-08-01T03:04:11;4.03;;;2.80;;
3447;SDS011;1738;49.500;17.736;2023-08-01T03:06:37;6.00;;;3.37;;
3447;SDS011;1738;49.500;17.736;2023-08-01T03:09:03;10.33;;;3.33;;
3447;SDS011;1738;49.500;17.736;2023-08-01T03:11:29;5.00;;;3.53;;
3447;SDS011;1738;49.500;17.736;2023-08-01T03:13:55;5.33;;;3.20;;
3447;SDS011;1738;49.500;17.736;2023-08-01T03:16:21;4.53;;;3.30;;
3447;SDS011;1738;49.500;17.736;2023-08-01T03:18:46;5.00;;;3.25;;
3447;SDS011;1738;49.500;17.736;2023-08-01T03:21:13;4.28;;;3.10;;
3447;SDS011;1738;49.500;17.736;2023-08-01T03:23:38;6.80;;;3.80;;
3447;SDS011;1738;49.500;17.736;2023-08-01T03:26:04;5.63;;;3.20;;
3447;SDS011;1738;49.500;17.736;2023-08-01T03:28:30;6.37;;;3.50;;
3447;SDS011;1738;49.500;17.736;2023-08-01T03:30:56;5.10;;;3.50;;
3447;SDS011;1738;49.500;17.736;2023-08-01T03:33:22;6.23;;;4.00;;
3447;SDS011;1738;49.500;17.736;2023-08-01T03:35:48;6.07;;;2.70;;
3447;SDS011;1738;49.500;17.736;2023-08-01T03:38:14;7.70;;;3.37;;
3447;SDS011;1738;49.500;17.736;2023-08-01T03:40:39;4.50;;;3.10;;
3447;SDS011;1738;49.500;17.736;2023-08-01T03:43:05;6.50;;;3.75;;
3447;SDS011;1738;49.500;17.736;2023-08-01T03:45:31;5.03;;;3.40;;
3447;SDS011;1738;49.500;17.736;2023-08-01T03:47:57;5.10;;;2.93;;
3447;SDS011;1738;49.500;17.736;2023-08-01T03:50:24;9.70;;;3.97;;
3447;SDS011;1738;49.500;17.736;2023-08-01T03:52:49;4.53;;;2.87;;
3447;SDS011;1738;49.500;17.736;2023-08-01T03:55:14;6.23;;;3.23;;
3447;SDS011;1738;49.500;17.736;2023-08-01T03:57:40;3.70;;;2.70;;
3447;SDS011;1738;49.500;17.736;2023-08-01T04:00:06;11.00;;;3.73;;
3447;SDS011;1738;49.500;17.736;2023-08-01T04:02:32;8.50;;;3.37;;
3447;SDS011;1738;49.500;17.736;2023-08-01T04:04:58;9.03;;;4.13;;
3447;SDS011;1738;49.500;17.736;2023-08-01T04:07:24;10.03;;;3.70;;
3447;SDS011;1738;49.500;17.736;2023-08-01T04:09:50;4.70;;;3.20;;
3447;SDS011;1738;49.500;17.736;2023-08-01T04:12:16;4.75;;;3.35;;
3447;SDS011;1738;49.500;17.736;2023-08-01T04:14:42;12.18;;;3.72;;
3447;SDS011;1738;49.500;17.736;2023-08-01T04:17:08;10.07;;;4.20;;
3447;SDS011;1738;49.500;17.736;2023-08-01T04:19:34;5.97;;;4.17;;
3447;SDS011;1738;49.500;17.736;2023-08-01T04:22:00;6.40;;;3.67;;
3447;SDS011;1738;49.500;17.736;2023-08-01T04:24:26;14.00;;;4.03;;
3447;SDS011;1738;49.500;17.736;2023-08-01T04:26:52;4.50;;;3.33;;
3447;SDS011;1738;49.500;17.736;2023-08-01T04:29:18;13.53;;;4.10;;
3447;SDS011;1738;49.500;17.736;2023-08-01T04:31:43;9.30;;;4.43;;
3447;SDS011;1738;49.500;17.736;2023-08-01T04:34:09;6.43;;;3.37;;
3447;SDS011;1738;49.500;17.736;2023-08-01T04:36:35;14.27;;;3.67;;
3447;SDS011;1738;49.500;17.736;2023-08-01T04:39:01;8.00;;;4.17;;
3447;SDS011;1738;49.500;17.736;2023-08-01T04:41:27;5.20;;;3.70;;
3447;SDS011;1738;49.500;17.736;2023-08-01T04:43:53;7.90;;;4.63;;
3447;SDS011;1738;49.500;17.736;2023-08-01T04:46:18;6.20;;;3.77;;
3447;SDS011;1738;49.500;17.736;2023-08-01T04:48:44;10.03;;;3.50;;
3447;SDS011;1738;49.500;17.736;2023-08-01T04:51:10;7.37;;;3.53;;
3447;SDS011;1738;49.500;17.736;2023-08-01T04:53:36;5.27;;;3.77;;
3447;SDS011;1738;49.500;17.736;2023-08-01T04:56:02;5.28;;;3.97;;
3447;SDS011;1738;49.500;17.736;2023-08-01T04:58:28;6.90;;;3.33;;
3447;SDS011;1738;49.500;17.736;2023-08-01T05:00:54;4.90;;;3.57;;
3447;SDS011;1738;49.500;17.736;2023-08-01T05:03:19;6.83;;;3.63;;
3447;SDS011;1738;49.500;17.736;2023-08-01T05:05:45;6.27;;;4.33;;
3447;SDS011;1738;49.500;17.736;2023-08-01T05:08:11;8.00;;;3.87;;
3447;SDS011;1738;49.500;17.736;2023-08-01T05:10:37;7.73;;;3.93;;
3447;SDS011;1738;49.500;17.736;2023-08-01T05:13:03;8.77;;;3.70;;
3447;SDS011;1738;49.500;17.736;2023-08-01T05:15:29;4.43;;;3.47;;
3447;SDS011;1738;49.500;17.736;2023-08-01T05:17:55;6.37;;;4.37;;
3447;SDS011;1738;49.500;17.736;2023-08-01T05:20:20;5.07;;;3.55;;
3447;SDS011;1738;49.500;17.736;2023-08-01T05:22:46;5.00;;;3.47;;
3447;SDS011;1738;49.500;17.736;2023-08-01T05:25:12;6.03;;;3.30;;
3447;SDS011;1738;49.500;17.736;2023-08-01T05:27:38;4.87;;;3.80;;
3447;SDS011;1738;49.500;17.736;2023-08-01T05:30:04;4.90;;;3.43;;
3447;SDS011;1738;49.500;17.736;2023-08-01T05:32:30;5.83;;;3.80;;
3447;SDS011;1738;49.500;17.736;2023-08-01T05:34:56;6.43;;;3.30;;
3447;SDS011;1738;49.500;17.736;2023-08-01T05:37:22;7.90;;;3.80;;
3447;SDS011;1738;49.500;17.736;2023-08-01T05:39:47;6.27;;;4.13;;
3447;SDS011;1738;49.500;17.736;2023-08-01T05:42:13;6.80;;;3.65;;
3447;SDS011;1738;49.500;17.736;2023-08-01T05:44:39;5.60;;;4.10;;
3447;SDS011;1738;49.500;17.736;2023-08-01T05:47:05;7.40;;;3.53;;
3447;SDS011;1738;49.500;17.736;2023-08-01T05:49:31;4.93;;;3.50;;
3447;SDS011;1738;49.500;17.736;2023-08-01T05:51:57;5.77;;;3.70;;
3447;SDS011;1738;49.500;17.736;2023-08-01T05:54:22;5.73;;;3.60;;
3447;SDS011;1738;49.500;17.736;2023-08-01T05:56:48;7.10;;;2.90;;
3447;SDS011;1738;49.500;17.736;2023-08-01T05:59:14;6.57;;;4.03;;
3447;SDS011;1738;49.500;17.736;2023-08-01T06:01:40;7.17;;;3.60;;
3447;SDS011;1738;49.500;17.736;2023-08-01T06:04:06;4.47;;;3.40;;
3447;SDS011;1738;49.500;17.736;2023-08-01T06:06:32;14.20;;;4.70;;
3447;SDS011;1738;49.500;17.736;2023-08-01T06:08:57;10.27;;;4.60;;
3447;SDS011;1738;49.500;17.736;2023-08-01T06:11:23;13.67;;;4.80;;
3447;SDS011;1738;49.500;17.736;2023-08-01T06:13:49;10.97;;;4.03;;
3447;SDS011;1738;49.500;17.736;2023-08-01T06:16:15;7.33;;;4.13;;
3447;SDS011;1738;49.500;17.736;2023-08-01T06:18:41;7.30;;;4.40;;
3447;SDS011;1738;49.500;17.736;2023-08-01T06:21:07;6.30;;;3.60;;
3447;SDS011;1738;49.500;17.736;2023-08-01T06:23:32;9.70;;;4.05;;
3447;SDS011;1738;49.500;17.736;2023-08-01T06:25:58;7.30;;;3.93;;
3447;SDS011;1738;49.500;17.736;2023-08-01T06:28:24;10.50;;;4.40;;
3447;SDS011;1738;49.500;17.736;2023-08-01T06:30:50;7.13;;;3.60;;
3447;SDS011;1738;49.500;17.736;2023-08-01T06:33:16;5.93;;;3.67;;
3447;SDS011;1738;49.500;17.736;2023-08-01T06:35:42;6.93;;;4.00;;
3447;SDS011;1738;49.500;17.736;2023-08-01T06:38:07;10.02;;;4.10;;
3447;SDS011;1738;49.500;17.736;2023-08-01T06:40:33;7.17;;;4.63;;
3447;SDS011;1738;49.500;17.736;2023-08-01T06:42:59;5.20;;;3.73;;
3447;SDS011;1738;49.500;17.736;2023-08-01T06:45:25;5.70;;;3.73;;
3447;SDS011;1738;49.500;17.736;2023-08-01T06:47:51;6.53;;;3.90;;
3447;SDS011;1738;49.500;17.736;2023-08-01T06:50:17;6.10;;;3.97;;
3447;SDS011;1738;49.500;17.736;2023-08-01T06:52:43;5.87;;;3.80;;
3447;SDS011;1738;49.500;17.736;2023-08-01T06:55:08;9.07;;;4.00;;
3447;SDS011;1738;49.500;17.736;2023-08-01T06:57:34;11.30;;;4.40;;
3447;SDS011;1738;49.500;17.736;2023-08-01T07:00:00;5.57;;;3.80;;
3447;SDS011;1738;49.500;17.736;2023-08-01T07:02:26;9.90;;;4.10;;
3447;SDS011;1738;49.500;17.736;2023-08-01T07:04:52;6.13;;;3.37;;
3447;SDS011;1738;49.500;17.736;2023-08-01T07:07:18;5.93;;;3.60;;
3447;SDS011;1738;49.500;17.736;2023-08-01T07:09:43;7.30;;;3.90;;
3447;SDS011;1738;49.500;17.736;2023-08-01T07:12:09;7.50;;;3.77;;
3447;SDS011;1738;49.500;17.736;2023-08-01T07:14:35;5.03;;;3.40;;
3447;SDS011;1738;49.500;17.736;2023-08-01T07:17:01;5.13;;;3.83;;
3447;SDS011;1738;49.500;17.736;2023-08-01T07:19:27;6.50;;;3.87;;
3447;SDS011;1738;49.500;17.736;2023-08-01T07:21:53;5.50;;;4.00;;
3447;SDS011;1738;49.500;17.736;2023-08-01T07:24:18;5.10;;;3.43;;
3447;SDS011;1738;49.500;17.736;2023-08-01T07:26:44;6.57;;;4.32;;
3447;SDS011;1738;49.500;17.736;2023-08-01T07:29:10;6.43;;;3.77;;
3447;SDS011;1738;49.500;17.736;2023-08-01T07:31:36;6.23;;;3.50;;
3447;SDS011;1738;49.500;17.736;2023-08-01T07:34:02;5.93;;;3.70;;
3447;SDS011;1738;49.500;17.736;2023-08-01T07:36:28;6.67;;;3.50;;
3447;SDS011;1738;49.500;17.736;2023-08-01T07:38:54;5.50;;;4.10;;
3447;SDS011;1738;49.500;17.736;2023-08-01T07:41:19;5.60;;;3.80;;
3447;SDS011;1738;49.500;17.736;2023-08-01T07:43:45;7.17;;;4.60;;
3447;SDS011;1738;49.500;17.736;2023-08-01T07:46:11;4.70;;;3.60;;
3447;SDS011;1738;49.500;17.736;2023-08-01T07:48:38;7.87;;;4.40;;
3447;SDS011;1738;49.500;17.736;2023-08-01T07:51:03;5.15;;;3.78;;
3447;SDS011;1738;49.500;17.736;2023-08-01T07:53:29;6.50;;;3.80;;
3447;SDS011;1738;49.500;17.736;2023-08-01T07:55:55;6.93;;;3.90;;
3447;SDS011;1738;49.500;17.736;2023-08-01T07:58:20;10.37;;;4.00;;
3447;SDS011;1738;49.500;17.736;2023-08-01T08:00:46;6.83;;;3.67;;
3447;SDS011;1738;49.500;17.736;2023-08-01T08:03:12;7.33;;;4.20;;
3447;SDS011;1738;49.500;17.736;2023-08-01T08:05:38;6.37;;;4.07;;
3447;SDS011;1738;49.500;17.736;2023-08-01T08:08:04;6.23;;;4.60;;
3447;SDS011;1738;49.500;17.736;2023-08-01T08:10:30;5.83;;;4.67;;
3447;SDS011;1738;49.500;17.736;2023-08-01T08:12:56;9.53;;;4.33;;
3447;SDS011;1738;49.500;17.736;2023-08-01T08:15:21;11.03;;;4.47;;
3447;SDS011;1738;49.500;17.736;2023-08-01T08:17:47;7.40;;;4.17;;
3447;SDS011;1738;49.500;17.736;2023-08-01T08:20:13;5.50;;;4.00;;
3447;SDS011;1738;49.500;17.736;2023-08-01T08:22:39;6.90;;;3.87;;
3447;SDS011;1738;49.500;17.736;2023-08-01T08:25:05;11.63;;;4.80;;
3447;SDS011;1738;49.500;17.736;2023-08-01T08:27:31;14.03;;;6.43;;
3447;SDS011;1738;49.500;17.736;2023-08-01T08:29:57;10.87;;;4.80;;
3447;SDS011;1738;49.500;17.736;2023-08-01T08:32:22;6.87;;;4.60;;
3447;SDS011;1738;49.500;17.736;2023-08-01T08:34:48;7.40;;;4.70;;
3447;SDS011;1738;49.500;17.736;2023-08-01T08:37:14;9.30;;;4.93;;
3447;SDS011;1738;49.500;17.736;2023-08-01T08:39:40;6.97;;;4.47;;
3447;SDS011;1738;49.500;17.736;2023-08-01T08:42:06;18.60;;;4.23;;
3447;SDS011;1738;49.500;17.736;2023-08-01T08:44:32;9.30;;;5.33;;
3447;SDS011;1738;49.500;17.736;2023-08-01T08:46:59;5.40;;;3.87;;
3447;SDS011;1738;49.500;17.736;2023-08-01T08:49:23;6.50;;;3.60;;
3447;SDS011;1738;49.500;17.736;2023-08-01T08:51:49;6.07;;;4.13;;
3447;SDS011;1738;49.500;17.736;2023-08-01T08:54:15;6.90;;;5.00;;
3447;SDS011;1738;49.500;17.736;2023-08-01T08:56:41;10.50;;;5.10;;
3447;SDS011;1738;49.500;17.736;2023-08-01T08:59:08;5.33;;;4.27;;
3447;SDS011;1738;49.500;17.736;2023-08-01T09:01:33;6.60;;;4.40;;
3447;SDS011;1738;49.500;17.736;2023-08-01T09:03:58;10.23;;;5.15;;
3447;SDS011;1738;49.500;17.736;2023-08-01T09:06:25;8.80;;;4.53;;
3447;SDS011;1738;49.500;17.736;2023-08-01T09:08:51;8.90;;;4.90;;
3447;SDS011;1738;49.500;17.736;2023-08-01T09:11:16;6.67;;;4.90;;
3447;SDS011;1738;49.500;17.736;2023-08-01T09:13:42;6.23;;;4.40;;
3447;SDS011;1738;49.500;17.736;2023-08-01T09:16:08;8.20;;;4.67;;
3447;SDS011;1738;49.500;17.736;2023-08-01T09:18:34;5.87;;;4.03;;
3447;SDS011;1738;49.500;17.736;2023-08-01T09:20:59;6.63;;;4.17;;
3447;SDS011;1738;49.500;17.736;2023-08-01T09:23:26;6.40;;;4.53;;
3447;SDS011;1738;49.500;17.736;2023-08-01T09:25:52;11.25;;;5.25;;
3447;SDS011;1738;49.500;17.736;2023-08-01T09:28:19;7.80;;;4.67;;
3447;SDS011;1738;49.500;17.736;2023-08-01T09:30:47;8.67;;;5.07;;
3447;SDS011;1738;49.500;17.736;2023-08-01T09:33:12;8.20;;;5.50;;
3447;SDS011;1738;49.500;17.736;2023-08-01T09:35:38;7.33;;;5.43;;
3447;SDS011;1738;49.500;17.736;2023-08-01T09:38:03;7.87;;;6.07;;
3447;SDS011;1738;49.500;17.736;2023-08-01T09:40:36;12.73;;;5.50;;
3447;SDS011;1738;49.500;17.736;2023-08-01T09:43:02;9.63;;;5.60;;
3447;SDS011;1738;49.500;17.736;2023-08-01T09:45:28;6.13;;;4.83;;
3447;SDS011;1738;49.500;17.736;2023-08-01T09:47:54;12.03;;;5.40;;
3447;SDS011;1738;49.500;17.736;2023-08-01T09:50:20;7.43;;;5.13;;
3447;SDS011;1738;49.500;17.736;2023-08-01T09:52:46;10.00;;;6.27;;
3447;SDS011;1738;49.500;17.736;2023-08-01T09:55:12;18.02;;;5.72;;
3447;SDS011;1738;49.500;17.736;2023-08-01T09:57:38;9.87;;;5.93;;
3447;SDS011;1738;49.500;17.736;2023-08-01T10:00:04;6.83;;;5.27;;
3447;SDS011;1738;49.500;17.736;2023-08-01T10:02:31;8.45;;;5.80;;
3447;SDS011;1738;49.500;17.736;2023-08-01T10:04:57;8.13;;;6.10;;
3447;SDS011;1738;49.500;17.736;2023-08-01T10:07:23;13.73;;;6.63;;
3447;SDS011;1738;49.500;17.736;2023-08-01T10:09:49;11.17;;;7.17;;
3447;SDS011;1738;49.500;17.736;2023-08-01T10:12:14;11.90;;;6.40;;
3447;SDS011;1738;49.500;17.736;2023-08-01T10:14:40;8.37;;;6.10;;
3447;SDS011;1738;49.500;17.736;2023-08-01T10:17:06;8.90;;;6.13;;
3447;SDS011;1738;49.500;17.736;2023-08-01T10:19:32;8.00;;;5.83;;
3447;SDS011;1738;49.500;17.736;2023-08-01T10:21:59;11.53;;;5.20;;
3447;SDS011;1738;49.500;17.736;2023-08-01T10:24:24;8.30;;;5.77;;
3447;SDS011;1738;49.500;17.736;2023-08-01T10:26:50;6.90;;;5.60;;
3447;SDS011;1738;49.500;17.736;2023-08-01T10:29:16;7.60;;;5.50;;
3447;SDS011;1738;49.500;17.736;2023-08-01T10:34:13;8.07;;;5.73;;
3447;SDS011;1738;49.500;17.736;2023-08-01T10:36:39;8.90;;;4.80;;
3447;SDS011;1738;49.500;17.736;2023-08-01T10:39:05;10.13;;;6.10;;
3447;SDS011;1738;49.500;17.736;2023-08-01T10:41:32;7.03;;;5.33;;
3447;SDS011;1738;49.500;17.736;2023-08-01T10:46:28;7.07;;;4.73;;
3447;SDS011;1738;49.500;17.736;2023-08-01T10:48:54;11.50;;;4.80;;
3447;SDS011;1738;49.500;17.736;2023-08-01T10:51:20;6.57;;;4.90;;
3447;SDS011;1738;49.500;17.736;2023-08-01T10:53:46;8.77;;;6.20;;
3447;SDS011;1738;49.500;17.736;2023-08-01T10:56:15;6.53;;;5.50;;
3447;SDS011;1738;49.500;17.736;2023-08-01T10:58:40;7.23;;;4.70;;
3447;SDS011;1738;49.500;17.736;2023-08-01T11:01:06;6.70;;;4.60;;
3447;SDS011;1738;49.500;17.736;2023-08-01T11:03:33;7.17;;;5.30;;
3447;SDS011;1738;49.500;17.736;2023-08-01T11:05:59;6.37;;;4.80;;
3447;SDS011;1738;49.500;17.736;2023-08-01T11:08:33;6.70;;;4.87;;
3447;SDS011;1738;49.500;17.736;2023-08-01T11:10:50;8.03;;;5.00;;
3447;SDS011;1738;49.500;17.736;2023-08-01T11:13:16;14.53;;;4.97;;
3447;SDS011;1738;49.500;17.736;2023-08-01T11:15:42;8.63;;;5.20;;
3447;SDS011;1738;49.500;17.736;2023-08-01T11:18:09;5.90;;;4.57;;
3447;SDS011;1738;49.500;17.736;2023-08-01T11:20:38;7.50;;;5.03;;
3447;SDS011;1738;49.500;17.736;2023-08-01T11:23:00;8.10;;;5.40;;
3447;SDS011;1738;49.500;17.736;2023-08-01T11:25:32;6.97;;;4.85;;
3447;SDS011;1738;49.500;17.736;2023-08-01T11:27:57;7.97;;;5.60;;
3447;SDS011;1738;49.500;17.736;2023-08-01T11:30:29;14.13;;;5.77;;
3447;SDS011;1738;49.500;17.736;2023-08-01T11:32:48;6.23;;;5.07;;
3447;SDS011;1738;49.500;17.736;2023-08-01T11:35:17;20.62;;;5.80;;
3447;SDS011;1738;49.500;17.736;2023-08-01T11:37:43;7.20;;;5.60;;
3447;SDS011;1738;49.500;17.736;2023-08-01T11:40:09;12.80;;;5.93;;
3447;SDS011;1738;49.500;17.736;2023-08-01T11:42:35;7.97;;;5.43;;
3447;SDS011;1738;49.500;17.736;2023-08-01T11:45:08;6.03;;;5.10;;
3447;SDS011;1738;49.500;17.736;2023-08-01T11:47:34;9.60;;;6.00;;
3447;SDS011;1738;49.500;17.736;2023-08-01T11:50:00;9.10;;;5.50;;
3447;SDS011;1738;49.500;17.736;2023-08-01T11:52:26;8.00;;;5.50;;
3447;SDS011;1738;49.500;17.736;2023-08-01T11:54:51;9.70;;;6.07;;
3447;SDS011;1738;49.500;17.736;2023-08-01T11:57:17;10.13;;;6.03;;
3447;SDS011;1738;49.500;17.736;2023-08-01T11:59:46;7.47;;;5.60;;
3447;SDS011;1738;49.500;17.736;2023-08-01T12:02:12;8.90;;;5.03;;
3447;SDS011;1738;49.500;17.736;2023-08-01T12:04:38;7.63;;;4.93;;
3447;SDS011;1738;49.500;17.736;2023-08-01T12:07:12;10.93;;;6.50;;
3447;SDS011;1738;49.500;17.736;2023-08-01T12:09:31;7.10;;;5.07;;
3447;SDS011;1738;49.500;17.736;2023-08-01T12:11:58;8.70;;;6.03;;
3447;SDS011;1738;49.500;17.736;2023-08-01T12:14:23;8.93;;;5.70;;
3447;SDS011;1738;49.500;17.736;2023-08-01T12:16:49;7.53;;;5.77;;
3447;SDS011;1738;49.500;17.736;2023-08-01T12:19:17;7.23;;;5.30;;
3447;SDS011;1738;49.500;17.736;2023-08-01T12:21:43;5.80;;;4.70;;
3447;SDS011;1738;49.500;17.736;2023-08-01T12:24:08;11.80;;;6.70;;
3447;SDS011;1738;49.500;17.736;2023-08-01T12:26:34;10.10;;;5.90;;
3447;SDS011;1738;49.500;17.736;2023-08-01T12:29:00;10.43;;;6.70;;
3447;SDS011;1738;49.500;17.736;2023-08-01T12:31:26;7.83;;;5.40;;
3447;SDS011;1738;49.500;17.736;2023-08-01T12:33:52;8.93;;;6.20;;
3447;SDS011;1738;49.500;17.736;2023-08-01T12:36:18;10.07;;;6.10;;
3447;SDS011;1738;49.500;17.736;2023-08-01T12:38:44;14.10;;;5.90;;
3447;SDS011;1738;49.500;17.736;2023-08-01T12:41:10;9.37;;;4.80;;
3447;SDS011;1738;49.500;17.736;2023-08-01T12:43:36;7.07;;;4.93;;
3447;SDS011;1738;49.500;17.736;2023-08-01T12:46:02;8.47;;;5.23;;
3447;SDS011;1738;49.500;17.736;2023-08-01T12:48:28;8.43;;;5.27;;
3447;SDS011;1738;49.500;17.736;2023-08-01T12:50:53;6.20;;;4.40;;
3447;SDS011;1738;49.500;17.736;2023-08-01T12:53:19;8.57;;;4.60;;
3447;SDS011;1738;49.500;17.736;2023-08-01T12:55:46;7.63;;;4.50;;
3447;SDS011;1738;49.500;17.736;2023-08-01T12:58:11;7.47;;;5.27;;
3447;SDS011;1738;49.500;17.736;2023-08-01T13:00:37;7.40;;;5.07;;
3447;SDS011;1738;49.500;17.736;2023-08-01T13:03:03;8.33;;;5.90;;
3447;SDS011;1738;49.500;17.736;2023-08-01T13:05:28;7.13;;;4.90;;
3447;SDS011;1738;49.500;17.736;2023-08-01T13:07:54;5.80;;;4.27;;
3447;SDS011;1738;49.500;17.736;2023-08-01T13:10:20;6.47;;;4.73;;
3447;SDS011;1738;49.500;17.736;2023-08-01T13:12:46;6.80;;;4.20;;
3447;SDS011;1738;49.500;17.736;2023-08-01T13:15:12;7.47;;;4.00;;
3447;SDS011;1738;49.500;17.736;2023-08-01T13:17:38;7.67;;;4.50;;
3447;SDS011;1738;49.500;17.736;2023-08-01T13:20:04;6.97;;;4.30;;
3447;SDS011;1738;49.500;17.736;2023-08-01T13:22:30;6.70;;;4.33;;
3447;SDS011;1738;49.500;17.736;2023-08-01T13:24:55;7.40;;;5.10;;
3447;SDS011;1738;49.500;17.736;2023-08-01T13:27:21;8.40;;;5.10;;
3447;SDS011;1738;49.500;17.736;2023-08-01T13:29:47;6.73;;;4.80;;
3447;SDS011;1738;49.500;17.736;2023-08-01T13:32:13;8.30;;;5.10;;
3447;SDS011;1738;49.500;17.736;2023-08-01T13:34:39;8.93;;;4.90;;
3447;SDS011;1738;49.500;17.736;2023-08-01T13:37:05;7.13;;;5.07;;
3447;SDS011;1738;49.500;17.736;2023-08-01T13:39:31;6.10;;;3.70;;
3447;SDS011;1738;49.500;17.736;2023-08-01T13:41:57;8.20;;;3.97;;
3447;SDS011;1738;49.500;17.736;2023-08-01T13:44:22;5.43;;;3.60;;
3447;SDS011;1738;49.500;17.736;2023-08-01T13:46:48;10.57;;;4.67;;
3447;SDS011;1738;49.500;17.736;2023-08-01T13:49:14;6.10;;;4.30;;
3447;SDS011;1738;49.500;17.736;2023-08-01T13:51:40;6.70;;;4.20;;
3447;SDS011;1738;49.500;17.736;2023-08-01T13:54:06;7.10;;;3.83;;
3447;SDS011;1738;49.500;17.736;2023-08-01T13:56:32;7.40;;;3.47;;
3447;SDS011;1738;49.500;17.736;2023-08-01T13:58:57;6.23;;;3.57;;
3447;SDS011;1738;49.500;17.736;2023-08-01T14:01:23;6.00;;;3.20;;
3447;SDS011;1738;49.500;17.736;2023-08-01T14:03:49;7.70;;;3.70;;
3447;SDS011;1738;49.500;17.736;2023-08-01T14:06:15;7.07;;;4.03;;
3447;SDS011;1738;49.500;17.736;2023-08-01T14:08:41;6.03;;;3.70;;
3447;SDS011;1738;49.500;17.736;2023-08-01T14:11:08;4.20;;;2.85;;
3447;SDS011;1738;49.500;17.736;2023-08-01T14:13:33;6.57;;;3.83;;
3447;SDS011;1738;49.500;17.736;2023-08-01T14:15:59;5.63;;;3.50;;
3447;SDS011;1738;49.500;17.736;2023-08-01T14:18:24;4.53;;;3.37;;
3447;SDS011;1738;49.500;17.736;2023-08-01T14:20:50;6.53;;;3.63;;
3447;SDS011;1738;49.500;17.736;2023-08-01T14:23:16;5.40;;;3.00;;
3447;SDS011;1738;49.500;17.736;2023-08-01T14:25:42;5.95;;;4.03;;
3447;SDS011;1738;49.500;17.736;2023-08-01T14:28:08;7.97;;;3.27;;
3447;SDS011;1738;49.500;17.736;2023-08-01T14:30:33;4.40;;;2.67;;
3447;SDS011;1738;49.500;17.736;2023-08-01T14:33:00;3.70;;;2.63;;
3447;SDS011;1738;49.500;17.736;2023-08-01T14:35:26;4.68;;;3.03;;
3447;SDS011;1738;49.500;17.736;2023-08-01T14:37:52;6.23;;;3.60;;
3447;SDS011;1738;49.500;17.736;2023-08-01T14:40:18;7.75;;;3.90;;
3447;SDS011;1738;49.500;17.736;2023-08-01T14:42:44;16.13;;;3.93;;
3447;SDS011;1738;49.500;17.736;2023-08-01T14:45:10;4.33;;;3.00;;
3447;SDS011;1738;49.500;17.736;2023-08-01T14:47:36;4.50;;;3.40;;
3447;SDS011;1738;49.500;17.736;2023-08-01T14:50:02;5.80;;;3.47;;
3447;SDS011;1738;49.500;17.736;2023-08-01T14:52:28;6.33;;;3.77;;
3447;SDS011;1738;49.500;17.736;2023-08-01T14:54:54;4.97;;;3.43;;
3447;SDS011;1738;49.500;17.736;2023-08-01T14:57:19;11.43;;;4.20;;
3447;SDS011;1738;49.500;17.736;2023-08-01T14:59:45;7.07;;;3.73;;